Time,TemperatureF,DewpointF,PressureIn,WindDirection,WindDirectionDegrees,WindSpeedMPH,WindSpeedGustMPH,Humidity,HourlyPrecipIn,Conditions,Clouds,dailyrainin,SoftwareType,DateUTC
2013-09-11 00:01:00,68.6,66.8,30.01,SW,219,0.0,0.0,94,0.00,,,0.00,WeatherCatV1.10B1784,2013-09-11 04:01:00,
2013-09-11 00:06:00,68.3,66.5,30.01,SW,219,0.0,0.0,94,0.00,,,0.00,WeatherCatV1.10B1784,2013-09-11 04:06:00,
2013-09-11 00:11:00,68.1,66.3,30.01,SW,219,0.0,0.0,94,0.00,,,0.00,WeatherCatV1.10B1784,2013-09-11 04:11:00,
2013-09-11 00:16:00,67.9,66.1,30.01,SW,219,0.0,0.0,94,0.00,,,0.00,WeatherCatV1.10B1784,2013-09-11 04:16:00,
2013-09-11 00:21:00,67.8,66.0,30.01,SW,219,0.0,0.0,94,0.00,,,0.00,WeatherCatV1.10B1784,2013-09-11 04:21:00,
2013-09-11 00:26:00,67.6,65.8,30.01,SW,219,0.0,0.0,94,0.00,,,0.00,WeatherCatV1.10B1784,2013-09-11 04:26:00,
2013-09-11 00:31:00,67.4,65.6,30.01,SW,219,0.0,0.0,94,0.00,,,0.00,WeatherCatV1.10B1784,2013-09-11 04:31:00,
2013-09-11 00:36:00,67.4,65.6,30.01,SW,219,0.0,0.0,94,0.00,,,0.00,WeatherCatV1.10B1784,2013-09-11 04:36:00,
2013-09-11 00:41:00,67.3,65.5,30.01,SW,219,0.0,0.0,94,0.00,,,0.00,WeatherCatV1.10B1784,2013-09-11 04:41:00,
2013-09-11 00:46:00,67.3,65.5,30.01,SW,219,0.0,0.0,94,0.00,,,0.00,WeatherCatV1.10B1784,2013-09-11 04:46:00,
2013-09-11 00:51:00,67.2,65.7,30.01,SW,219,0.0,0.0,95,0.00,,,0.00,WeatherCatV1.10B1784,2013-09-11 04:51:00,
2013-09-11 00:56:00,67.4,65.9,30.01,SW,219,0.0,0.0,95,0.00,,,0.00,WeatherCatV1.10B1784,2013-09-11 04:56:00,
2013-09-11 01:01:00,67.4,65.9,30.01,SW,219,0.0,0.0,95,0.00,,,0.00,WeatherCatV1.10B1784,2013-09-11 05:01:00,
2013-09-11 01:06:00,67.5,66.0,30.01,SW,219,0.0,0.0,95,0.00,,,0.00,WeatherCatV1.10B1784,2013-09-11 05:06:00,
2013-09-11 01:11:00,67.7,66.2,30.00,SW,219,0.0,0.0,95,0.00,,,0.00,WeatherCatV1.10B1784,2013-09-11 05:11:00,
2013-09-11 01:16:00,68.1,66.6,30.00,SW,219,0.0,0.0,95,0.00,,,0.00,WeatherCatV1.10B1784,2013-09-11 05:16:00,
2013-09-11 01:21:00,69.2,67.7,30.00,SW,219,0.0,2.0,95,0.00,,,0.00,WeatherCatV1.10B1784,2013-09-11 05:21:00,
2013-09-11 01:26:00,69.9,68.4,30.00,SW,223,3.0,4.0,95,0.00,,,0.00,WeatherCatV1.10B1784,2013-09-11 05:26:00,
2013-09-11 01:31:00,70.4,68.9,30.00,WSW,238,0.0,5.0,95,0.00,,,0.00,WeatherCatV1.10B1784,2013-09-11 05:31:00,
2013-09-11 01:36:00,70.6,69.1,29.99,SW,233,3.0,3.0,95,0.00,,,0.00,WeatherCatV1.10B1784,2013-09-11 05:36:00,
2013-09-11 01:41:00,70.9,69.4,29.99,SW,233,1.0,5.0,95,0.00,,,0.00,WeatherCatV1.10B1784,2013-09-11 05:41:00,
2013-09-11 01:46:00,71.0,69.5,29.99,WSW,246,3.0,5.0,95,0.00,,,0.00,WeatherCatV1.10B1784,2013-09-11 05:46:00,
2013-09-11 01:51:00,71.2,69.7,29.99,WSW,238,5.0,5.0,95,0.00,,,0.00,WeatherCatV1.10B1784,2013-09-11 05:51:00,
2013-09-11 01:56:00,71.2,69.4,29.99,WSW,240,5.0,7.0,94,0.00,,,0.00,WeatherCatV1.10B1784,2013-09-11 05:56:00,
2013-09-11 02:01:00,71.4,69.6,29.99,SW,226,2.0,6.0,94,0.00,,,0.00,WeatherCatV1.10B1784,2013-09-11 06:01:00,
2013-09-11 02:06:00,71.6,69.8,29.99,WSW,248,5.0,7.0,94,0.00,,,0.00,WeatherCatV1.10B1784,2013-09-11 06:06:00,
2013-09-11 02:11:00,71.7,69.9,29.99,WSW,241,4.0,7.0,94,0.00,,,0.00,WeatherCatV1.10B1784,2013-09-11 06:11:00,
2013-09-11 02:16:00,71.8,69.7,29.99,WSW,248,0.0,8.0,93,0.00,,,0.00,WeatherCatV1.10B1784,2013-09-11 06:16:00,
2013-09-11 02:21:00,71.8,69.7,29.99,SW,233,9.0,10.0,93,0.00,,,0.00,WeatherCatV1.10B1784,2013-09-11 06:21:00,
2013-09-11 02:26:00,72.1,70.0,29.99,WSW,240,5.0,9.0,93,0.00,,,0.00,WeatherCatV1.10B1784,2013-09-11 06:26:00,
2013-09-11 02:31:00,72.2,70.1,29.99,WSW,244,1.0,8.0,93,0.00,,,0.00,WeatherCatV1.10B1784,2013-09-11 06:31:00,
2013-09-11 02:36:00,72.3,70.2,29.99,WSW,250,0.0,10.0,93,0.00,,,0.00,WeatherCatV1.10B1784,2013-09-11 06:36:00,
2013-09-11 02:41:00,72.4,69.9,29.99,SW,227,5.0,13.0,92,0.00,,,0.00,WeatherCatV1.10B1784,2013-09-11 06:41:00,
2013-09-11 02:46:00,72.5,70.0,29.99,WSW,246,4.0,5.0,92,0.00,,,0.00,WeatherCatV1.10B1784,2013-09-11 06:46:00,
2013-09-11 02:51:00,72.6,70.1,29.99,West,262,2.0,11.0,92,0.00,,,0.00,WeatherCatV1.10B1784,2013-09-11 06:51:00,
2013-09-11 02:56:00,72.6,70.1,29.99,West,262,0.0,4.0,92,0.00,,,0.00,WeatherCatV1.10B1784,2013-09-11 06:56:00,
2013-09-11 03:01:00,72.7,70.2,29.99,WSW,257,0.0,6.0,92,0.00,,,0.00,WeatherCatV1.10B1784,2013-09-11 07:01:00,
2013-09-11 03:06:00,72.8,70.3,29.99,SW,227,0.0,5.0,92,0.00,,,0.00,WeatherCatV1.10B1784,2013-09-11 07:06:00,
2013-09-11 03:11:00,72.8,70.3,29.99,WSW,257,0.0,6.0,92,0.00,,,0.00,WeatherCatV1.10B1784,2013-09-11 07:11:00,
2013-09-11 03:16:00,72.8,70.3,29.99,West,273,0.0,0.0,92,0.00,,,0.00,WeatherCatV1.10B1784,2013-09-11 07:16:00,
2013-09-11 03:21:00,72.7,70.2,29.99,WSW,243,1.0,1.0,92,0.00,,,0.00,WeatherCatV1.10B1784,2013-09-11 07:21:00,
2013-09-11 03:26:00,72.6,70.1,30.00,WSW,244,2.0,5.0,92,0.00,,,0.00,WeatherCatV1.10B1784,2013-09-11 07:26:00,
2013-09-11 03:31:00,72.6,70.1,30.00,WSW,252,0.0,6.0,92,0.00,,,0.00,WeatherCatV1.10B1784,2013-09-11 07:31:00,
2013-09-11 03:36:00,72.5,70.0,30.00,NW,317,6.0,6.0,92,0.00,,,0.00,WeatherCatV1.10B1784,2013-09-11 07:36:00,
2013-09-11 03:41:00,72.4,69.9,30.00,West,281,0.0,2.0,92,0.00,,,0.00,WeatherCatV1.10B1784,2013-09-11 07:41:00,
2013-09-11 03:46:00,72.4,70.3,30.00,WSW,244,0.0,2.0,93,0.00,,,0.00,WeatherCatV1.10B1784,2013-09-11 07:46:00,
2013-09-11 03:51:00,72.5,70.4,29.99,WSW,253,5.0,7.0,93,0.00,,,0.00,WeatherCatV1.10B1784,2013-09-11 07:51:00,
2013-09-11 03:56:00,72.6,70.1,29.99,WSW,243,4.0,6.0,92,0.00,,,0.00,WeatherCatV1.10B1784,2013-09-11 07:56:00,
2013-09-11 04:01:00,72.7,70.2,29.99,West,262,1.0,2.0,92,0.00,,,0.00,WeatherCatV1.10B1784,2013-09-11 08:01:00,
2013-09-11 04:06:00,72.8,70.3,29.99,West,262,9.0,10.0,92,0.00,,,0.00,WeatherCatV1.10B1784,2013-09-11 08:06:00,
2013-09-11 04:11:00,72.8,70.3,29.99,WSW,238,7.0,8.0,92,0.00,,,0.00,WeatherCatV1.10B1784,2013-09-11 08:11:00,
2013-09-11 04:16:00,73.0,70.5,29.99,WSW,249,1.0,11.0,92,0.00,,,0.00,WeatherCatV1.10B1784,2013-09-11 08:16:00,
2013-09-11 04:21:00,73.0,70.5,29.99,SW,227,9.0,9.0,92,0.00,,,0.00,WeatherCatV1.10B1784,2013-09-11 08:21:00,
2013-09-11 04:26:00,73.1,70.3,29.99,SW,235,7.0,9.0,91,0.00,,,0.00,WeatherCatV1.10B1784,2013-09-11 08:26:00,
2013-09-11 04:31:00,73.1,70.3,29.99,WSW,238,6.0,10.0,91,0.00,,,0.00,WeatherCatV1.10B1784,2013-09-11 08:31:00,
2013-09-11 04:36:00,73.2,70.4,29.99,WSW,238,0.0,7.0,91,0.00,,,0.00,WeatherCatV1.10B1784,2013-09-11 08:36:00,
2013-09-11 04:41:00,73.2,70.4,29.99,WSW,238,0.0,7.0,91,0.00,,,0.00,WeatherCatV1.10B1784,2013-09-11 08:41:00,
2013-09-11 04:46:00,73.3,70.5,29.99,SW,226,5.0,7.0,91,0.00,,,0.00,WeatherCatV1.10B1784,2013-09-11 08:46:00,
2013-09-11 04:51:00,73.3,70.5,29.98,WSW,238,5.0,7.0,91,0.00,,,0.00,WeatherCatV1.10B1784,2013-09-11 08:51:00,
2013-09-11 04:56:00,73.4,70.6,29.99,WSW,237,0.0,5.0,91,0.00,,,0.00,WeatherCatV1.10B1784,2013-09-11 08:56:00,
2013-09-11 05:01:00,73.1,70.3,29.99,SSW,206,0.0,6.0,91,0.00,,,0.00,WeatherCatV1.10B1784,2013-09-11 09:01:00,
2013-09-11 05:06:00,72.9,70.4,29.99,SW,228,0.0,6.0,92,0.00,,,0.00,WeatherCatV1.10B1784,2013-09-11 09:06:00,
2013-09-11 05:11:00,72.7,70.2,29.99,SW,228,0.0,2.0,92,0.00,,,0.00,WeatherCatV1.10B1784,2013-09-11 09:11:00,
2013-09-11 05:16:00,72.2,69.4,29.99,SW,231,0.0,3.0,91,0.00,,,0.00,WeatherCatV1.10B1784,2013-09-11 09:16:00,
2013-09-11 05:21:00,71.8,69.3,29.99,SW,231,0.0,0.0,92,0.00,,,0.00,WeatherCatV1.10B1784,2013-09-11 09:21:00,
2013-09-11 05:26:00,71.4,68.9,29.99,SW,231,0.0,0.0,92,0.00,,,0.00,WeatherCatV1.10B1784,2013-09-11 09:26:00,
2013-09-11 05:31:00,71.2,69.1,29.99,SW,231,0.0,0.0,93,0.00,,,0.00,WeatherCatV1.10B1784,2013-09-11 09:31:00,
2013-09-11 05:36:00,71.2,69.1,29.99,SW,231,0.0,0.0,93,0.00,,,0.00,WeatherCatV1.10B1784,2013-09-11 09:36:00,
2013-09-11 05:41:00,71.2,69.4,29.99,SW,231,0.0,0.0,94,0.00,,,0.00,WeatherCatV1.10B1784,2013-09-11 09:41:00,
2013-09-11 05:46:00,70.9,69.1,29.99,SW,231,0.0,0.0,94,0.00,,,0.00,WeatherCatV1.10B1784,2013-09-11 09:46:00,
2013-09-11 05:51:00,70.8,69.0,30.00,SW,231,0.0,0.0,94,0.00,,,0.00,WeatherCatV1.10B1784,2013-09-11 09:51:00,
2013-09-11 05:56:00,70.7,68.9,29.99,SW,231,0.0,0.0,94,0.00,,,0.00,WeatherCatV1.10B1784,2013-09-11 09:56:00,
2013-09-11 06:01:00,70.7,68.9,29.99,SW,231,0.0,0.0,94,0.00,,,0.00,WeatherCatV1.10B1784,2013-09-11 10:01:00,
2013-09-11 06:06:00,70.6,68.8,30.00,SW,231,0.0,0.0,94,0.00,,,0.00,WeatherCatV1.10B1784,2013-09-11 10:06:00,
2013-09-11 06:11:00,70.6,68.8,30.00,SW,231,0.0,0.0,94,0.00,,,0.00,WeatherCatV1.10B1784,2013-09-11 10:11:00,
2013-09-11 06:16:00,70.4,68.6,30.00,SW,231,0.0,0.0,94,0.00,,,0.00,WeatherCatV1.10B1784,2013-09-11 10:16:00,
2013-09-11 06:21:00,70.4,68.6,30.00,SW,231,0.0,1.0,94,0.00,,,0.00,WeatherCatV1.10B1784,2013-09-11 10:21:00,
2013-09-11 06:26:00,70.2,68.4,30.00,SW,231,0.0,0.0,94,0.00,,,0.00,WeatherCatV1.10B1784,2013-09-11 10:26:00,
2013-09-11 06:31:00,70.1,68.3,30.00,SW,231,0.0,0.0,94,0.00,,,0.00,WeatherCatV1.10B1784,2013-09-11 10:31:00,
2013-09-11 06:36:00,70.0,68.2,30.00,SW,231,0.0,0.0,94,0.00,,,0.00,WeatherCatV1.10B1784,2013-09-11 10:36:00,
2013-09-11 06:41:00,69.7,67.9,30.00,SW,231,0.0,0.0,94,0.00,,,0.00,WeatherCatV1.10B1784,2013-09-11 10:41:00,
2013-09-11 06:46:00,69.6,68.1,30.00,SW,231,0.0,0.0,95,0.00,,,0.00,WeatherCatV1.10B1784,2013-09-11 10:46:00,
2013-09-11 06:51:00,69.6,68.1,30.00,SW,231,0.0,0.0,95,0.00,,,0.00,WeatherCatV1.10B1784,2013-09-11 10:51:00,
2013-09-11 06:56:00,69.5,68.0,30.00,SW,231,0.0,0.0,95,0.00,,,0.00,WeatherCatV1.10B1784,2013-09-11 10:56:00,
2013-09-11 07:01:00,69.4,67.9,30.00,SW,231,0.0,0.0,95,0.00,,,0.00,WeatherCatV1.10B1784,2013-09-11 11:01:00,
2013-09-11 07:06:00,69.3,67.8,30.01,SW,231,0.0,0.0,95,0.00,,,0.00,WeatherCatV1.10B1784,2013-09-11 11:06:00,
2013-09-11 07:11:00,69.2,67.7,30.01,SW,231,0.0,0.0,95,0.00,,,0.00,WeatherCatV1.10B1784,2013-09-11 11:11:00,
2013-09-11 07:16:00,69.2,67.7,30.01,SW,231,0.0,0.0,95,0.00,,,0.00,WeatherCatV1.10B1784,2013-09-11 11:16:00,
2013-09-11 07:21:00,69.5,68.0,30.01,SW,231,0.0,0.0,95,0.00,,,0.00,WeatherCatV1.10B1784,2013-09-11 11:21:00,
2013-09-11 07:26:00,69.6,68.1,30.01,SW,231,0.0,0.0,95,0.00,,,0.00,WeatherCatV1.10B1784,2013-09-11 11:26:00,
2013-09-11 07:31:00,69.8,68.3,30.01,SW,231,0.0,0.0,95,0.00,,,0.00,WeatherCatV1.10B1784,2013-09-11 11:31:00,
2013-09-11 07:36:00,69.9,68.4,30.01,SW,231,0.0,0.0,95,0.00,,,0.00,WeatherCatV1.10B1784,2013-09-11 11:36:00,
2013-09-11 07:41:00,70.0,68.5,30.01,SW,231,0.0,0.0,95,0.00,,,0.00,WeatherCatV1.10B1784,2013-09-11 11:41:00,
2013-09-11 07:46:00,70.3,68.8,30.02,SW,231,0.0,0.0,95,0.00,,,0.00,WeatherCatV1.10B1784,2013-09-11 11:46:00,
2013-09-11 07:51:00,70.5,69.0,30.02,SW,231,0.0,0.0,95,0.00,,,0.00,WeatherCatV1.10B1784,2013-09-11 11:51:00,
2013-09-11 07:56:00,70.7,69.2,30.02,SW,231,0.0,0.0,95,0.00,,,0.00,WeatherCatV1.10B1784,2013-09-11 11:56:00,
2013-09-11 08:01:00,70.9,69.4,30.01,SW,231,0.0,0.0,95,0.00,,,0.00,WeatherCatV1.10B1784,2013-09-11 12:01:00,
2013-09-11 08:06:00,71.2,69.7,30.02,SW,231,0.0,0.0,95,0.00,,,0.00,WeatherCatV1.10B1784,2013-09-11 12:06:00,
2013-09-11 08:11:00,71.4,69.9,30.02,SW,231,0.0,0.0,95,0.00,,,0.00,WeatherCatV1.10B1784,2013-09-11 12:11:00,
2013-09-11 08:16:00,71.8,70.6,30.01,SW,231,0.0,0.0,96,0.00,,,0.00,WeatherCatV1.10B1784,2013-09-11 12:16:00,
2013-09-11 08:21:00,72.2,70.7,30.01,SW,231,0.0,0.0,95,0.00,,,0.00,WeatherCatV1.10B1784,2013-09-11 12:21:00,
2013-09-11 08:26:00,72.7,71.2,30.01,SW,231,0.0,0.0,95,0.00,,,0.00,WeatherCatV1.10B1784,2013-09-11 12:26:00,
2013-09-11 08:31:00,73.3,71.8,30.01,SW,231,0.0,0.0,95,0.00,,,0.00,WeatherCatV1.10B1784,2013-09-11 12:31:00,
2013-09-11 08:36:00,74.1,72.3,30.01,SW,231,0.0,0.0,94,0.00,,,0.00,WeatherCatV1.10B1784,2013-09-11 12:36:00,
2013-09-11 08:41:00,74.8,72.6,30.01,SW,231,0.0,0.0,93,0.00,,,0.00,WeatherCatV1.10B1784,2013-09-11 12:41:00,
2013-09-11 08:46:00,75.6,72.8,30.01,SW,231,0.0,0.0,91,0.00,,,0.00,WeatherCatV1.10B1784,2013-09-11 12:46:00,
2013-09-11 08:51:00,76.2,73.0,30.02,SW,231,0.0,0.0,90,0.00,,,0.00,WeatherCatV1.10B1784,2013-09-11 12:51:00,
2013-09-11 08:56:00,77.0,73.5,30.01,SW,231,0.0,0.0,89,0.00,,,0.00,WeatherCatV1.10B1784,2013-09-11 12:56:00,
2013-09-11 09:01:00,77.8,73.9,30.01,SW,231,0.0,0.0,88,0.00,,,0.00,WeatherCatV1.10B1784,2013-09-11 13:01:00,
2013-09-11 09:06:00,78.6,74.0,30.01,SW,231,0.0,0.0,86,0.00,,,0.00,WeatherCatV1.10B1784,2013-09-11 13:06:00,
2013-09-11 09:11:00,79.1,74.2,30.01,SW,231,0.0,1.0,85,0.00,,,0.00,WeatherCatV1.10B1784,2013-09-11 13:11:00,
2013-09-11 09:16:00,79.6,74.3,30.01,SW,231,1.0,5.0,84,0.00,,,0.00,WeatherCatV1.10B1784,2013-09-11 13:16:00,
2013-09-11 09:21:00,79.9,74.6,30.01,SW,231,0.0,1.0,84,0.00,,,0.00,WeatherCatV1.10B1784,2013-09-11 13:21:00,
2013-09-11 09:26:00,80.4,74.4,30.02,SW,231,3.0,6.0,82,0.00,,,0.00,WeatherCatV1.10B1784,2013-09-11 13:26:00,
2013-09-11 09:31:00,80.4,74.0,30.01,WSW,238,0.0,3.0,81,0.00,,,0.00,WeatherCatV1.10B1784,2013-09-11 13:31:00,
2013-09-11 09:36:00,80.6,74.2,30.02,SW,231,0.0,1.0,81,0.00,,,0.00,WeatherCatV1.10B1784,2013-09-11 13:36:00,
2013-09-11 09:41:00,81.1,75.1,30.02,SE,146,1.0,4.0,82,0.00,,,0.00,WeatherCatV1.10B1784,2013-09-11 13:41:00,
2013-09-11 09:46:00,81.5,75.1,30.02,West,262,3.0,4.0,81,0.00,,,0.00,WeatherCatV1.10B1784,2013-09-11 13:46:00,
2013-09-11 09:51:00,81.8,75.4,30.01,WSW,257,4.0,4.0,81,0.00,,,0.00,WeatherCatV1.10B1784,2013-09-11 13:51:00,
2013-09-11 09:56:00,81.9,75.1,30.01,SSW,207,0.0,3.0,80,0.00,,,0.00,WeatherCatV1.10B1784,2013-09-11 13:56:00,
2013-09-11 10:01:00,82.5,75.3,30.01,SSW,202,0.0,1.0,79,0.00,,,0.00,WeatherCatV1.10B1784,2013-09-11 14:01:00,
2013-09-11 10:06:00,83.0,75.4,30.01,SW,227,1.0,3.0,78,0.00,,,0.00,WeatherCatV1.10B1784,2013-09-11 14:06:00,
2013-09-11 10:11:00,83.4,75.8,30.01,WSW,257,1.0,4.0,78,0.00,,,0.00,WeatherCatV1.10B1784,2013-09-11 14:11:00,
2013-09-11 10:16:00,83.9,75.9,30.01,SE,138,1.0,7.0,77,0.00,,,0.00,WeatherCatV1.10B1784,2013-09-11 14:16:00,
2013-09-11 10:21:00,84.5,76.1,30.01,SSE,160,4.0,4.0,76,0.00,,,0.00,WeatherCatV1.10B1784,2013-09-11 14:21:00,
2013-09-11 10:26:00,84.8,76.0,30.00,WSW,240,0.0,2.0,75,0.00,,,0.00,WeatherCatV1.10B1784,2013-09-11 14:26:00,
2013-09-11 10:31:00,85.2,76.4,30.00,SE,140,1.0,10.0,75,0.00,,,0.00,WeatherCatV1.10B1784,2013-09-11 14:31:00,
2013-09-11 10:36:00,85.4,76.1,30.00,South,178,0.0,5.0,74,0.00,,,0.00,WeatherCatV1.10B1784,2013-09-11 14:36:00,
2013-09-11 10:41:00,85.2,75.5,30.00,WSW,247,4.0,8.0,73,0.00,,,0.00,WeatherCatV1.10B1784,2013-09-11 14:41:00,
2013-09-11 10:46:00,84.8,75.6,30.00,South,172,1.0,6.0,74,0.00,,,0.00,WeatherCatV1.10B1784,2013-09-11 14:46:00,
2013-09-11 10:51:00,85.1,75.4,30.00,WSW,257,3.0,6.0,73,0.00,,,0.00,WeatherCatV1.10B1784,2013-09-11 14:51:00,
2013-09-11 10:56:00,85.6,75.9,30.00,South,190,0.0,3.0,73,0.00,,,0.00,WeatherCatV1.10B1784,2013-09-11 14:56:00,
2013-09-11 11:01:00,85.9,75.4,30.00,SW,234,1.0,9.0,71,0.00,,,0.00,WeatherCatV1.10B1784,2013-09-11 15:01:00,
2013-09-11 11:06:00,85.8,76.1,30.00,WSW,246,0.0,5.0,73,0.00,,,0.00,WeatherCatV1.10B1784,2013-09-11 15:06:00,
2013-09-11 11:11:00,86.3,76.2,30.00,SW,232,1.0,3.0,72,0.00,,,0.00,WeatherCatV1.10B1784,2013-09-11 15:11:00,
2013-09-11 11:16:00,86.9,76.8,30.00,SW,225,0.0,1.0,72,0.00,,,0.00,WeatherCatV1.10B1784,2013-09-11 15:16:00,
2013-09-11 11:21:00,87.2,76.6,30.00,SW,226,0.0,0.0,71,0.00,,,0.00,WeatherCatV1.10B1784,2013-09-11 15:21:00,
2013-09-11 11:26:00,87.4,76.8,30.00,SSE,153,0.0,4.0,71,0.00,,,0.00,WeatherCatV1.10B1784,2013-09-11 15:26:00,
2013-09-11 11:31:00,87.7,76.2,30.00,SW,225,0.0,3.0,69,0.00,,,0.00,WeatherCatV1.10B1784,2013-09-11 15:31:00,
2013-09-11 11:36:00,87.7,75.3,29.99,SW,223,6.0,6.0,67,0.00,,,0.00,WeatherCatV1.10B1784,2013-09-11 15:36:00,
2013-09-11 11:41:00,87.4,75.5,29.99,SSE,157,0.0,4.0,68,0.00,,,0.00,WeatherCatV1.10B1784,2013-09-11 15:41:00,
2013-09-11 11:46:00,87.8,76.8,29.99,WSW,252,0.0,2.0,70,0.00,,,0.00,WeatherCatV1.10B1784,2013-09-11 15:46:00,
2013-09-11 11:51:00,88.0,76.5,29.99,WNW,285,4.0,4.0,69,0.00,,,0.00,WeatherCatV1.10B1784,2013-09-11 15:51:00,
2013-09-11 11:56:00,88.3,76.8,29.99,SSE,161,0.0,8.0,69,0.00,,,0.00,WeatherCatV1.10B1784,2013-09-11 15:56:00,
2013-09-11 12:01:00,88.5,76.1,29.99,West,277,0.0,7.0,67,0.00,,,0.00,WeatherCatV1.10B1784,2013-09-11 16:01:00,
2013-09-11 12:06:00,88.8,76.8,29.99,South,180,4.0,11.0,68,0.00,,,0.00,WeatherCatV1.10B1784,2013-09-11 16:06:00,
2013-09-11 12:11:00,88.7,75.8,29.99,SW,229,7.0,12.0,66,0.00,,,0.00,WeatherCatV1.10B1784,2013-09-11 16:11:00,
2013-09-11 12:16:00,87.9,75.5,29.99,WSW,257,0.0,7.0,67,0.00,,,0.00,WeatherCatV1.10B1784,2013-09-11 16:16:00,
2013-09-11 12:21:00,88.1,75.3,29.99,South,184,4.0,11.0,66,0.00,,,0.00,WeatherCatV1.10B1784,2013-09-11 16:21:00,
2013-09-11 12:26:00,88.0,76.1,29.99,SW,225,0.0,6.0,68,0.00,,,0.00,WeatherCatV1.10B1784,2013-09-11 16:26:00,
2013-09-11 12:31:00,88.1,75.7,29.99,WSW,257,2.0,5.0,67,0.00,,,0.00,WeatherCatV1.10B1784,2013-09-11 16:31:00,
2013-09-11 12:36:00,88.4,75.6,29.99,SW,222,4.0,9.0,66,0.00,,,0.00,WeatherCatV1.10B1784,2013-09-11 16:36:00,
2013-09-11 12:41:00,88.3,75.5,29.99,WSW,238,7.0,9.0,66,0.00,,,0.00,WeatherCatV1.10B1784,2013-09-11 16:41:00,
2013-09-11 12:46:00,88.5,75.7,29.98,West,262,1.0,5.0,66,0.00,,,0.00,WeatherCatV1.10B1784,2013-09-11 16:46:00,
2013-09-11 12:51:00,88.8,75.5,29.98,WSW,242,4.0,6.0,65,0.00,,,0.00,WeatherCatV1.10B1784,2013-09-11 16:51:00,
2013-09-11 12:56:00,89.0,76.6,29.98,SSE,151,0.0,2.0,67,0.00,,,0.00,WeatherCatV1.10B1784,2013-09-11 16:56:00,
2013-09-11 13:01:00,89.5,77.5,29.98,WSW,246,0.0,2.0,68,0.00,,,0.00,WeatherCatV1.10B1784,2013-09-11 17:01:00,
2013-09-11 13:06:00,90.1,76.2,29.97,West,262,0.0,4.0,64,0.00,,,0.00,WeatherCatV1.10B1784,2013-09-11 17:06:00,
2013-09-11 13:11:00,90.1,75.3,29.97,SW,214,3.0,7.0,62,0.00,,,0.00,WeatherCatV1.10B1784,2013-09-11 17:11:00,
2013-09-11 13:16:00,89.9,75.1,29.97,SE,133,0.0,6.0,62,0.00,,,0.00,WeatherCatV1.10B1784,2013-09-11 17:16:00,
2013-09-11 13:21:00,90.2,74.9,29.97,WSW,250,0.0,5.0,61,0.00,,,0.00,WeatherCatV1.10B1784,2013-09-11 17:21:00,
2013-09-11 13:26:00,90.5,75.2,29.97,West,262,2.0,7.0,61,0.00,,,0.00,WeatherCatV1.10B1784,2013-09-11 17:26:00,
2013-09-11 13:31:00,90.8,75.9,29.97,SSE,148,0.0,5.0,62,0.00,,,0.00,WeatherCatV1.10B1784,2013-09-11 17:31:00,
2013-09-11 13:36:00,91.0,75.1,29.96,SW,223,4.0,6.0,60,0.00,,,0.00,WeatherCatV1.10B1784,2013-09-11 17:36:00,
2013-09-11 13:41:00,91.0,75.6,29.96,WSW,244,4.0,4.0,61,0.00,,,0.00,WeatherCatV1.10B1784,2013-09-11 17:41:00,
2013-09-11 13:46:00,91.2,74.3,29.96,WSW,241,5.0,8.0,58,0.00,,,0.00,WeatherCatV1.10B1784,2013-09-11 17:46:00,
2013-09-11 13:51:00,91.0,74.6,29.96,SW,231,5.0,5.0,59,0.00,,,0.00,WeatherCatV1.10B1784,2013-09-11 17:51:00,
2013-09-11 13:56:00,90.7,75.4,29.96,WSW,240,4.0,5.0,61,0.00,,,0.00,WeatherCatV1.10B1784,2013-09-11 17:56:00,
2013-09-11 14:01:00,91.0,76.6,29.96,SW,233,0.0,0.0,63,0.00,,,0.00,WeatherCatV1.10B1784,2013-09-11 18:01:00,
2013-09-11 14:06:00,91.8,76.9,29.95,North,352,0.0,3.0,62,0.00,,,0.00,WeatherCatV1.10B1784,2013-09-11 18:06:00,
2013-09-11 14:11:00,92.0,76.6,29.95,SW,231,2.0,8.0,61,0.00,,,0.00,WeatherCatV1.10B1784,2013-09-11 18:11:00,
2013-09-11 14:16:00,91.7,75.3,29.95,West,267,0.0,4.0,59,0.00,,,0.00,WeatherCatV1.10B1784,2013-09-11 18:16:00,
2013-09-11 14:21:00,91.6,74.2,29.95,WSW,243,4.0,10.0,57,0.00,,,0.00,WeatherCatV1.10B1784,2013-09-11 18:21:00,
2013-09-11 14:26:00,92.0,75.1,29.95,West,273,0.0,3.0,58,0.00,,,0.00,WeatherCatV1.10B1784,2013-09-11 18:26:00,
2013-09-11 14:31:00,92.4,75.4,29.94,SW,220,1.0,7.0,58,0.00,,,0.00,WeatherCatV1.10B1784,2013-09-11 18:31:00,
2013-09-11 14:36:00,92.4,74.4,29.95,WSW,246,3.0,5.0,56,0.00,,,0.00,WeatherCatV1.10B1784,2013-09-11 18:36:00,
2013-09-11 14:41:00,92.2,73.1,29.94,WSW,244,4.0,11.0,54,0.00,,,0.00,WeatherCatV1.10B1784,2013-09-11 18:41:00,
2013-09-11 14:46:00,91.9,73.4,29.94,SW,226,5.0,9.0,55,0.00,,,0.00,WeatherCatV1.10B1784,2013-09-11 18:46:00,
2013-09-11 14:51:00,91.6,72.6,29.94,WSW,246,1.0,14.0,54,0.00,,,0.00,WeatherCatV1.10B1784,2013-09-11 18:51:00,
2013-09-11 14:56:00,91.7,73.7,29.94,SW,227,0.0,7.0,56,0.00,,,0.00,WeatherCatV1.10B1784,2013-09-11 18:56:00,
2013-09-11 15:01:00,91.9,73.9,29.94,SW,215,3.0,3.0,56,0.00,,,0.00,WeatherCatV1.10B1784,2013-09-11 19:01:00,
2013-09-11 15:06:00,92.3,73.2,29.94,WSW,240,4.0,10.0,54,0.00,,,0.00,WeatherCatV1.10B1784,2013-09-11 19:06:00,
2013-09-11 15:11:00,92.5,73.4,29.93,SW,231,6.0,6.0,54,0.00,,,0.00,WeatherCatV1.10B1784,2013-09-11 19:11:00,
2013-09-11 15:16:00,92.8,73.7,29.93,WSW,242,5.0,7.0,54,0.00,,,0.00,WeatherCatV1.10B1784,2013-09-11 19:16:00,
2013-09-11 15:21:00,92.4,73.3,29.93,WSW,257,5.0,7.0,54,0.00,,,0.00,WeatherCatV1.10B1784,2013-09-11 19:21:00,
2013-09-11 15:26:00,92.4,73.8,29.93,West,271,1.0,2.0,55,0.00,,,0.00,WeatherCatV1.10B1784,2013-09-11 19:26:00,
2013-09-11 15:31:00,92.2,72.6,29.93,SW,217,0.0,9.0,53,0.00,,,0.00,WeatherCatV1.10B1784,2013-09-11 19:31:00,
2013-09-11 15:36:00,92.4,72.2,29.93,SW,224,0.0,7.0,52,0.00,,,0.00,WeatherCatV1.10B1784,2013-09-11 19:36:00,
2013-09-11 15:41:00,92.1,72.5,29.92,SW,232,0.0,11.0,53,0.00,,,0.00,WeatherCatV1.10B1784,2013-09-11 19:41:00,
2013-09-11 15:46:00,92.2,72.0,29.92,WSW,237,2.0,7.0,52,0.00,,,0.00,WeatherCatV1.10B1784,2013-09-11 19:46:00,
2013-09-11 15:51:00,92.1,71.9,29.92,WSW,243,5.0,10.0,52,0.00,,,0.00,WeatherCatV1.10B1784,2013-09-11 19:51:00,
2013-09-11 15:56:00,91.8,72.7,29.92,WSW,252,5.0,7.0,54,0.00,,,0.00,WeatherCatV1.10B1784,2013-09-11 19:56:00,
2013-09-11 16:01:00,91.6,71.4,29.92,WSW,250,0.0,12.0,52,0.00,,,0.00,WeatherCatV1.10B1784,2013-09-11 20:01:00,
2013-09-11 16:06:00,91.7,72.6,29.92,WSW,241,0.0,5.0,54,0.00,,,0.00,WeatherCatV1.10B1784,2013-09-11 20:06:00,
2013-09-11 16:11:00,92.1,73.6,29.91,SW,229,1.0,2.0,55,0.00,,,0.00,WeatherCatV1.10B1784,2013-09-11 20:11:00,
2013-09-11 16:16:00,92.5,71.7,29.91,WSW,242,8.0,9.0,51,0.00,,,0.00,WeatherCatV1.10B1784,2013-09-11 20:16:00,
2013-09-11 16:21:00,92.5,72.3,29.91,West,262,1.0,4.0,52,0.00,,,0.00,WeatherCatV1.10B1784,2013-09-11 20:21:00,
2013-09-11 16:26:00,92.6,72.4,29.91,SSW,213,1.0,5.0,52,0.00,,,0.00,WeatherCatV1.10B1784,2013-09-11 20:26:00,
2013-09-11 16:31:00,92.5,72.3,29.91,WSW,243,1.0,1.0,52,0.00,,,0.00,WeatherCatV1.10B1784,2013-09-11 20:31:00,
2013-09-11 16:36:00,92.9,73.2,29.91,SW,235,0.0,7.0,53,0.00,,,0.00,WeatherCatV1.10B1784,2013-09-11 20:36:00,
2013-09-11 16:41:00,92.6,72.9,29.91,WSW,237,0.0,3.0,53,0.00,,,0.00,WeatherCatV1.10B1784,2013-09-11 20:41:00,
2013-09-11 16:46:00,92.9,73.8,29.91,SW,231,3.0,4.0,54,0.00,,,0.00,WeatherCatV1.10B1784,2013-09-11 20:46:00,
2013-09-11 16:51:00,92.4,72.7,29.91,WSW,238,5.0,8.0,53,0.00,,,0.00,WeatherCatV1.10B1784,2013-09-11 20:51:00,
2013-09-11 16:56:00,92.1,73.6,29.90,SW,223,0.0,3.0,55,0.00,,,0.00,WeatherCatV1.10B1784,2013-09-11 20:56:00,
2013-09-11 17:01:00,92.3,73.8,29.90,SW,219,1.0,2.0,55,0.00,,,0.00,WeatherCatV1.10B1784,2013-09-11 21:01:00,
2013-09-11 17:06:00,91.8,72.7,29.90,SSE,157,0.0,4.0,54,0.00,,,0.00,WeatherCatV1.10B1784,2013-09-11 21:06:00,
2013-09-11 17:11:00,91.8,73.3,29.90,SW,235,2.0,5.0,55,0.00,,,0.00,WeatherCatV1.10B1784,2013-09-11 21:11:00,
2013-09-11 17:17:00,91.7,72.6,29.90,WSW,241,3.0,4.0,54,0.00,,,0.00,WeatherCatV1.10B1784,2013-09-11 21:17:00,
2013-09-11 17:22:00,91.5,72.5,29.89,WSW,240,0.0,1.0,54,0.00,,,0.00,WeatherCatV1.10B1784,2013-09-11 21:22:00,
2013-09-11 17:27:00,91.3,72.8,29.89,SW,233,0.0,4.0,55,0.00,,,0.00,WeatherCatV1.10B1784,2013-09-11 21:27:00,
2013-09-11 17:32:00,90.9,73.5,29.89,SW,231,0.0,1.0,57,0.00,,,0.00,WeatherCatV1.10B1784,2013-09-11 21:32:00,
2013-09-11 17:37:00,90.5,73.1,29.89,SW,229,0.0,1.0,57,0.00,,,0.00,WeatherCatV1.10B1784,2013-09-11 21:37:00,
2013-09-11 17:42:00,90.0,73.2,29.89,SW,233,1.0,3.0,58,0.00,,,0.00,WeatherCatV1.10B1784,2013-09-11 21:42:00,
2013-09-11 17:47:00,89.2,73.5,29.89,WSW,252,0.0,1.0,60,0.00,,,0.00,WeatherCatV1.10B1784,2013-09-11 21:47:00,
2013-09-11 17:52:00,88.7,73.0,29.89,WSW,251,0.0,3.0,60,0.00,,,0.00,WeatherCatV1.10B1784,2013-09-11 21:52:00,
2013-09-11 17:57:00,88.2,73.0,29.89,WSW,251,0.0,0.0,61,0.00,,,0.00,WeatherCatV1.10B1784,2013-09-11 21:57:00,
2013-09-11 18:02:00,87.9,73.2,29.89,WSW,251,0.0,0.0,62,0.00,,,0.00,WeatherCatV1.10B1784,2013-09-11 22:02:00,
2013-09-11 18:07:00,87.6,73.9,29.89,WSW,251,0.0,0.0,64,0.00,,,0.00,WeatherCatV1.10B1784,2013-09-11 22:07:00,
2013-09-11 18:12:00,87.1,73.9,29.89,WSW,251,0.0,0.0,65,0.00,,,0.00,WeatherCatV1.10B1784,2013-09-11 22:12:00,
2013-09-11 18:17:00,86.6,74.3,29.88,WSW,251,0.0,0.0,67,0.00,,,0.00,WeatherCatV1.10B1784,2013-09-11 22:17:00,
2013-09-11 18:22:00,85.9,73.6,29.88,WSW,251,0.0,0.0,67,0.00,,,0.00,WeatherCatV1.10B1784,2013-09-11 22:22:00,
2013-09-11 18:27:00,85.2,74.3,29.88,WSW,251,0.0,0.0,70,0.00,,,0.00,WeatherCatV1.10B1784,2013-09-11 22:27:00,
2013-09-11 18:32:00,84.5,74.0,29.89,WSW,251,0.0,0.0,71,0.00,,,0.00,WeatherCatV1.10B1784,2013-09-11 22:32:00,
2013-09-11 18:37:00,84.0,74.4,29.89,WSW,251,0.0,0.0,73,0.00,,,0.00,WeatherCatV1.10B1784,2013-09-11 22:37:00,
2013-09-11 18:42:00,83.4,74.2,29.89,WSW,251,0.0,0.0,74,0.00,,,0.00,WeatherCatV1.10B1784,2013-09-11 22:42:00,
2013-09-11 18:47:00,82.7,74.3,29.90,WSW,251,0.0,0.0,76,0.00,,,0.00,WeatherCatV1.10B1784,2013-09-11 22:47:00,
2013-09-11 18:52:00,82.2,74.2,29.91,WSW,251,0.0,0.0,77,0.00,,,0.00,WeatherCatV1.10B1784,2013-09-11 22:52:00,
2013-09-11 18:57:00,81.9,74.3,29.90,WSW,251,0.0,0.0,78,0.00,,,0.00,WeatherCatV1.10B1784,2013-09-11 22:57:00,
2013-09-11 19:02:00,81.9,74.3,29.90,WSW,251,0.0,0.0,78,0.00,,,0.00,WeatherCatV1.10B1784,2013-09-11 23:02:00,
2013-09-11 19:07:00,81.8,74.2,29.90,WSW,251,0.0,0.0,78,0.00,,,0.00,WeatherCatV1.10B1784,2013-09-11 23:07:00,
2013-09-11 19:12:00,81.8,74.2,29.90,WSW,251,0.0,0.0,78,0.00,,,0.00,WeatherCatV1.10B1784,2013-09-11 23:12:00,
2013-09-11 19:17:00,82.0,74.4,29.90,WSW,251,0.0,0.0,78,0.00,,,0.00,WeatherCatV1.10B1784,2013-09-11 23:17:00,
2013-09-11 19:22:00,82.0,74.8,29.91,WSW,251,0.0,0.0,79,0.00,,,0.00,WeatherCatV1.10B1784,2013-09-11 23:22:00,
2013-09-11 19:27:00,82.0,74.8,29.91,WSW,251,0.0,0.0,79,0.00,,,0.00,WeatherCatV1.10B1784,2013-09-11 23:27:00,
2013-09-11 19:32:00,82.0,75.2,29.91,WSW,251,0.0,3.0,80,0.00,,,0.00,WeatherCatV1.10B1784,2013-09-11 23:32:00,
2013-09-11 19:37:00,81.9,75.1,29.91,WSW,249,0.0,8.0,80,0.00,,,0.00,WeatherCatV1.10B1784,2013-09-11 23:37:00,
2013-09-11 19:42:00,82.0,75.2,29.91,WSW,244,0.0,3.0,80,0.00,,,0.00,WeatherCatV1.10B1784,2013-09-11 23:42:00,
2013-09-11 19:47:00,81.9,75.5,29.92,WSW,243,1.0,3.0,81,0.00,,,0.00,WeatherCatV1.10B1784,2013-09-11 23:47:00,
2013-09-11 19:52:00,81.9,75.5,29.92,WSW,243,4.0,4.0,81,0.00,,,0.00,WeatherCatV1.10B1784,2013-09-11 23:52:00,
2013-09-11 19:57:00,82.0,75.9,29.92,WSW,240,1.0,5.0,82,0.00,,,0.00,WeatherCatV1.10B1784,2013-09-11 23:57:00,
2013-09-11 20:02:00,82.0,75.9,29.92,WSW,240,0.0,6.0,82,0.00,,,0.00,WeatherCatV1.10B1784,2013-09-12 00:02:00,
2013-09-11 20:07:00,82.0,75.9,29.92,WSW,240,0.0,1.0,82,0.00,,,0.00,WeatherCatV1.10B1784,2013-09-12 00:07:00,
2013-09-11 20:12:00,81.9,75.8,29.92,WSW,252,3.0,10.0,82,0.00,,,0.00,WeatherCatV1.10B1784,2013-09-12 00:12:00,
2013-09-11 20:17:00,81.9,75.8,29.92,SSE,164,0.0,4.0,82,0.00,,,0.00,WeatherCatV1.10B1784,2013-09-12 00:17:00,
2013-09-11 20:22:00,81.8,76.1,29.92,SW,217,0.0,3.0,83,0.00,,,0.00,WeatherCatV1.10B1784,2013-09-12 00:22:00,
2013-09-11 20:27:00,81.7,76.0,29.93,WSW,249,0.0,8.0,83,0.00,,,0.00,WeatherCatV1.10B1784,2013-09-12 00:27:00,
2013-09-11 20:32:00,81.7,76.0,29.93,WSW,250,0.0,6.0,83,0.00,,,0.00,WeatherCatV1.10B1784,2013-09-12 00:32:00,
2013-09-11 20:37:00,81.6,75.9,29.93,SW,228,1.0,4.0,83,0.00,,,0.00,WeatherCatV1.10B1784,2013-09-12 00:37:00,
2013-09-11 20:42:00,81.5,75.8,29.93,WSW,245,0.0,0.0,83,0.00,,,0.00,WeatherCatV1.10B1784,2013-09-12 00:42:00,
2013-09-11 20:47:00,81.4,75.7,29.93,WSW,244,1.0,5.0,83,0.00,,,0.00,WeatherCatV1.10B1784,2013-09-12 00:47:00,
2013-09-11 20:52:00,81.3,75.6,29.92,WSW,244,0.0,2.0,83,0.00,,,0.00,WeatherCatV1.10B1784,2013-09-12 00:52:00,
2013-09-11 20:57:00,81.2,75.5,29.92,SW,228,3.0,3.0,83,0.00,,,0.00,WeatherCatV1.10B1784,2013-09-12 00:57:00,
2013-09-11 21:02:00,81.0,75.7,29.92,SW,233,3.0,3.0,84,0.00,,,0.00,WeatherCatV1.10B1784,2013-09-12 01:02:00,
2013-09-11 21:07:00,80.8,75.5,29.92,SW,231,4.0,4.0,84,0.00,,,0.00,WeatherCatV1.10B1784,2013-09-12 01:07:00,
2013-09-11 21:12:00,80.6,75.3,29.92,WSW,241,0.0,0.0,84,0.00,,,0.00,WeatherCatV1.10B1784,2013-09-12 01:12:00,
2013-09-11 21:17:00,80.6,75.3,29.92,WSW,241,0.0,7.0,84,0.00,,,0.00,WeatherCatV1.10B1784,2013-09-12 01:17:00,
2013-09-11 21:22:00,80.5,75.2,29.92,SW,236,1.0,6.0,84,0.00,,,0.00,WeatherCatV1.10B1784,2013-09-12 01:22:00,
2013-09-11 21:27:00,80.5,74.8,29.92,WSW,257,0.0,3.0,83,0.00,,,0.00,WeatherCatV1.10B1784,2013-09-12 01:27:00,
2013-09-11 21:32:00,80.5,75.2,29.93,WSW,244,0.0,4.0,84,0.00,,,0.00,WeatherCatV1.10B1784,2013-09-12 01:32:00,
2013-09-11 21:37:00,80.4,74.7,29.93,West,281,0.0,4.0,83,0.00,,,0.00,WeatherCatV1.10B1784,2013-09-12 01:37:00,
2013-09-11 21:42:00,80.4,74.7,29.93,West,280,4.0,5.0,83,0.00,,,0.00,WeatherCatV1.10B1784,2013-09-12 01:42:00,
2013-09-11 21:47:00,80.4,74.7,29.93,SW,224,0.0,7.0,83,0.00,,,0.00,WeatherCatV1.10B1784,2013-09-12 01:47:00,
2013-09-11 21:52:00,80.5,74.5,29.93,SW,234,5.0,9.0,82,0.00,,,0.00,WeatherCatV1.10B1784,2013-09-12 01:52:00,
2013-09-11 21:57:00,80.6,74.6,29.96,SW,233,0.0,6.0,82,0.00,,,0.00,WeatherCatV1.10B1784,2013-09-12 01:57:00,
2013-09-11 22:02:00,80.5,73.4,29.96,NW,310,0.0,8.0,79,0.00,,,0.00,WeatherCatV1.10B1784,2013-09-12 02:02:00,
2013-09-11 22:07:00,80.3,71.2,29.97,WNW,295,2.0,10.0,74,0.00,,,0.00,WeatherCatV1.10B1784,2013-09-12 02:07:00,
2013-09-11 22:12:00,80.2,69.9,29.97,West,267,2.0,11.0,71,0.00,,,0.00,WeatherCatV1.10B1784,2013-09-12 02:12:00,
2013-09-11 22:17:00,79.6,69.3,29.96,SSW,210,9.0,9.0,71,0.00,,,0.00,WeatherCatV1.10B1784,2013-09-12 02:17:00,
2013-09-11 22:22:00,78.6,68.4,29.96,WNW,286,1.0,13.0,71,0.00,,,0.00,WeatherCatV1.10B1784,2013-09-12 02:22:00,
2013-09-11 22:27:00,77.6,67.8,29.96,WSW,252,8.0,8.0,72,0.00,,,0.00,WeatherCatV1.10B1784,2013-09-12 02:27:00,
2013-09-11 22:32:00,77.0,68.1,29.96,NW,317,10.0,10.0,74,0.00,,,0.00,WeatherCatV1.10B1784,2013-09-12 02:32:00,
2013-09-11 22:37:00,76.4,68.3,29.95,WSW,238,9.0,9.0,76,0.00,,,0.00,WeatherCatV1.10B1784,2013-09-12 02:37:00,
2013-09-11 22:42:00,75.8,68.4,29.95,NNW,327,3.0,5.0,78,0.00,,,0.00,WeatherCatV1.10B1784,2013-09-12 02:42:00,
2013-09-11 22:47:00,75.4,68.4,29.94,West,267,0.0,5.0,79,0.00,,,0.00,WeatherCatV1.10B1784,2013-09-12 02:47:00,
2013-09-11 22:52:00,75.2,68.2,29.93,WSW,237,8.0,8.0,79,0.00,,,0.00,WeatherCatV1.10B1784,2013-09-12 02:52:00,
2013-09-11 22:57:00,75.1,68.1,29.93,WSW,240,0.0,2.0,79,0.00,,,0.00,WeatherCatV1.10B1784,2013-09-12 02:57:00,
2013-09-11 23:02:00,74.9,68.3,29.92,West,274,4.0,6.0,80,0.00,,,0.00,WeatherCatV1.10B1784,2013-09-12 03:02:00,
2013-09-11 23:07:00,74.9,68.3,29.93,West,267,1.0,3.0,80,0.00,,,0.00,WeatherCatV1.10B1784,2013-09-12 03:07:00,
2013-09-11 23:12:00,74.8,68.2,29.92,NW,309,1.0,1.0,80,0.00,,,0.00,WeatherCatV1.10B1784,2013-09-12 03:12:00,
2013-09-11 23:17:00,74.7,68.1,29.92,WNW,288,0.0,0.0,80,0.00,,,0.00,WeatherCatV1.10B1784,2013-09-12 03:17:00,
2013-09-11 23:22:00,74.6,68.0,29.92,WNW,288,0.0,3.0,80,0.00,,,0.00,WeatherCatV1.10B1784,2013-09-12 03:22:00,
2013-09-11 23:27:00,74.5,67.9,29.92,WNW,283,0.0,3.0,80,0.00,,,0.00,WeatherCatV1.10B1784,2013-09-12 03:27:00,
2013-09-11 23:32:00,74.6,68.0,29.91,WNW,283,0.0,0.0,80,0.00,,,0.00,WeatherCatV1.10B1784,2013-09-12 03:32:00,
2013-09-11 23:37:00,74.5,67.9,29.91,West,279,4.0,4.0,80,0.00,,,0.00,WeatherCatV1.10B1784,2013-09-12 03:37:00,
2013-09-11 23:42:00,74.5,67.9,29.91,West,279,0.0,0.0,80,0.00,,,0.00,WeatherCatV1.10B1784,2013-09-12 03:42:00,
2013-09-11 23:47:00,74.3,67.7,29.90,West,279,0.0,0.0,80,0.00,,,0.00,WeatherCatV1.10B1784,2013-09-12 03:47:00,
2013-09-11 23:52:00,74.3,67.7,29.90,West,279,0.0,0.0,80,0.00,,,0.00,WeatherCatV1.10B1784,2013-09-12 03:52:00,
2013-09-11 23:57:00,74.2,67.6,29.90,West,279,0.0,0.0,80,0.00,,,0.00,WeatherCatV1.10B1784,2013-09-12 03:57:00,